Alexandria, Egypt

1:50 AM EET on October 25, 2014 (GMT +0200)
Alexandria International | Change Station
CLOSE
Current Station
Airport
Location: Alexandria,
Elevation: 23 ft
Nearby Weather Stations

Elev 23 ft 31.18 °N, 29.95 °E | Updated 50 minutes ago

Clear
Clear
66 °F
Feels Like 66 °F
N
0
Wind Variable Wind from North

Today
High -- | Low -- °F
--% Chance of Precip.
Yesterday
High -- | Low -- °F
Precip. -- in
6:09 AM 5:18 PM
New Moon, 1% visible
Pressure 29.95 in
Visibility -9999.0 miles
Clouds
Dew Point 55 °F
Humidity 68%
Rainfall 0.00 in
Snow Depth Not available.
UV Not available.
Pollen Not available.
Air Quality Not available.
Flu Activity Not available.
METAR HEAX 242300Z 00000KT CAVOK 19/13 Q1014 NOSIG

More Conditions Fewer Conditions

Pressure 29.95 in
Visibility -9999.0 miles
Clouds
Dew Point 55 °F
Humidity 68%
Rainfall 0.00 in
Snow Depth Not available.
UV Not available.
Pollen Not available.
Air Quality Not available.
Flu Activity Not available.
METAR HEAX 242300Z 00000KT CAVOK 19/13 Q1014 NOSIG

More Conditions Fewer Conditions

10-Day Weather Forecast

Almanac

Astronomy

Oct. 25, 2014 Rise Set
Actual Time 6:09 AM EET 5:18 PM EET
Civil Twilight 5:45 AM EET 5:42 PM EET
Nautical Twilight 5:16 AM EET 6:11 PM EET
Astronomical Twilight 4:48 AM EET 6:39 PM EET
Moon 7:25 AM EET (10/25) 6:31 PM EET (10/25)
Length of Visible Light 11h 57m
Length of Day
11h 08m
Tomorrow will be 1m 45s shorter.
New Moon, 1% of the Moon is Illuminated
Oct 24
New Moon
Oct 30
First Quarter
Nov 6
Full
Nov 14
Last Quarter
Nov 22
New

Yesterday's Extremes

Country Highs Country Lows

Community

WunderPhotos

Upload Photos

1,764,713 photos uploaded!

Nearby

Snow Depth

Not available.

Earthquake Activity

City Distance Mag. Time & Date
No recent earthquake activity has been reported nearby.
Minimum magnitude displayed is 2.5.

Coastal Water Temperatures

Place Temperature
No Stations Reporting

Nearby Weather Stations